createdAt,value
2018-09-24T00:00:16.472Z,7.80
2018-09-24T00:01:16.307Z,7.78
2018-09-24T00:02:16.581Z,7.75
2018-09-24T00:03:16.845Z,7.72
2018-09-24T00:04:17.123Z,7.74
2018-09-24T00:05:16.393Z,7.74
2018-09-24T00:06:16.665Z,7.66
2018-09-24T00:07:16.946Z,7.61
2018-09-24T00:08:16.203Z,7.61
2018-09-24T00:09:16.477Z,7.62
2018-09-24T00:10:16.751Z,7.55
2018-09-24T00:11:16.797Z,7.57
2018-09-24T00:12:17.073Z,7.51
2018-09-24T00:13:16.336Z,7.45
2018-09-24T00:14:16.605Z,7.45
2018-09-24T00:15:16.881Z,7.43
2018-09-24T00:16:17.170Z,7.44
2018-09-24T00:17:16.477Z,7.50
2018-09-24T00:18:16.776Z,7.48
2018-09-24T00:19:17.050Z,7.45
2018-09-24T00:20:16.341Z,7.47
2018-09-24T00:21:16.375Z,7.44
2018-09-24T00:22:16.649Z,7.44
2018-09-24T00:23:16.915Z,7.47
2018-09-24T00:24:17.189Z,7.47
2018-09-24T00:25:16.464Z,7.44
2018-09-24T00:26:16.738Z,7.61
2018-09-24T00:27:17.006Z,7.59
2018-09-24T00:28:16.280Z,7.62
2018-09-24T00:29:16.541Z,7.62
2018-09-24T00:30:16.817Z,7.69
2018-09-24T00:31:16.850Z,7.75
2018-09-24T00:32:17.118Z,7.75
2018-09-24T00:33:16.382Z,7.75
2018-09-24T00:34:16.646Z,7.78
2018-09-24T00:35:16.917Z,7.82
2018-09-24T00:36:17.540Z,7.85
2018-09-24T00:37:16.820Z,7.91
2018-09-24T00:38:17.106Z,7.92
2018-09-24T00:39:16.380Z,7.93
2018-09-24T00:40:16.657Z,7.96
2018-09-24T00:41:16.692Z,7.93
2018-09-24T00:42:16.962Z,8.03
2018-09-24T00:43:16.294Z,8.03
2018-09-24T00:44:16.660Z,8.06
2018-09-24T00:45:16.926Z,8.05
2018-09-24T00:46:17.209Z,8.09
2018-09-24T00:47:16.484Z,8.13
2018-09-24T00:48:16.752Z,8.12
2018-09-24T00:49:17.019Z,8.13
2018-09-24T00:50:16.317Z,8.12
2018-09-24T00:51:16.341Z,8.21
2018-09-24T00:52:16.615Z,8.13
2018-09-24T00:53:16.876Z,8.10
2018-09-24T00:54:17.147Z,8.10
2018-09-24T00:55:16.414Z,8.06
2018-09-24T00:56:16.679Z,8.06
2018-09-24T00:57:16.952Z,8.10
2018-09-24T00:58:16.217Z,8.13
2018-09-24T00:59:16.488Z,8.09
2018-09-24T01:00:16.754Z,8.06
2018-09-24T01:01:16.807Z,8.06
2018-09-24T01:02:17.084Z,8.08
2018-09-24T01:03:16.371Z,8.02
2018-09-24T01:04:16.643Z,7.99
2018-09-24T01:05:16.917Z,8.03
2018-09-24T01:06:17.510Z,8.03
2018-09-24T01:07:16.774Z,8.05
2018-09-24T01:08:17.042Z,8.14
2018-09-24T01:09:16.314Z,8.02
2018-09-24T01:10:16.610Z,8.09
2018-09-24T01:11:16.630Z,8.05
2018-09-24T01:12:16.887Z,8.06
2018-09-24T01:13:17.156Z,8.03
2018-09-24T01:14:16.417Z,8.00
2018-09-24T01:15:16.683Z,8.02
2018-09-24T01:16:16.950Z,8.02
2018-09-24T01:17:16.225Z,8.02
2018-09-24T01:18:16.502Z,7.99
2018-09-24T01:19:16.766Z,8.00
2018-09-24T01:20:17.036Z,8.03
2018-09-24T01:21:17.091Z,8.06
2018-09-24T01:22:16.357Z,8.02
2018-09-24T01:23:16.629Z,7.99
2018-09-24T01:24:16.912Z,8.02
2018-09-24T01:25:17.184Z,8.02
2018-09-24T01:26:16.463Z,8.03
2018-09-24T01:27:16.743Z,8.02
2018-09-24T01:28:17.006Z,8.08
2018-09-24T01:29:16.272Z,8.08
2018-09-24T01:30:16.552Z,8.08
2018-09-24T01:31:16.617Z,8.06
2018-09-24T01:32:16.902Z,8.05
2018-09-24T01:33:17.170Z,8.05
2018-09-24T01:34:16.441Z,8.03
2018-09-24T01:35:16.704Z,8.03
2018-09-24T01:36:16.972Z,8.06
2018-09-24T01:37:16.246Z,8.10
2018-09-24T01:38:16.519Z,8.12
2018-09-24T01:39:16.784Z,8.03
2018-09-24T01:40:17.073Z,8.02
2018-09-24T01:41:16.269Z,8.08
2018-09-24T01:42:16.548Z,8.06
2018-09-24T01:43:16.826Z,8.06
2018-09-24T01:44:17.097Z,8.05
2018-09-24T01:45:16.375Z,8.06
2018-09-24T01:46:16.657Z,8.05
2018-09-24T01:47:16.921Z,8.10
2018-09-24T01:48:17.192Z,8.08
2018-09-24T01:49:16.477Z,8.13
2018-09-24T01:50:16.770Z,8.12
2018-09-24T01:51:16.794Z,8.16
2018-09-24T01:52:17.077Z,8.16
2018-09-24T01:53:16.357Z,8.19
2018-09-24T01:54:16.628Z,8.17
2018-09-24T01:55:16.905Z,8.14
2018-09-24T01:56:17.168Z,8.14
2018-09-24T01:57:16.448Z,8.14
2018-09-24T01:58:16.721Z,8.17
2018-09-24T01:59:17.006Z,8.26
2018-09-24T02:00:16.279Z,8.13
2018-09-24T02:01:16.324Z,8.16
2018-09-24T02:02:16.600Z,8.16
2018-09-24T02:03:16.877Z,8.20
2018-09-24T02:04:17.152Z,8.20
2018-09-24T02:05:16.441Z,8.19
2018-09-24T02:06:16.702Z,8.16
2018-09-24T02:07:16.973Z,8.21
2018-09-24T02:08:16.246Z,8.20
2018-09-24T02:09:16.497Z,8.26
2018-09-24T02:10:16.775Z,8.24
2018-09-24T02:11:16.711Z,8.29
2018-09-24T02:12:16.969Z,8.23
2018-09-24T02:13:16.229Z,8.24
2018-09-24T02:14:16.514Z,8.23
2018-09-24T02:15:16.786Z,8.27
2018-09-24T02:16:17.054Z,8.26
2018-09-24T02:17:16.326Z,8.23
2018-09-24T02:18:16.585Z,8.23
2018-09-24T02:19:16.849Z,8.21
2018-09-24T02:20:17.132Z,8.27
2018-09-24T02:21:17.156Z,8.24
2018-09-24T02:22:16.424Z,8.27
2018-09-24T02:23:16.689Z,8.29
2018-09-24T02:24:16.955Z,8.27
2018-09-24T02:25:16.232Z,8.29
2018-09-24T02:26:16.506Z,8.29
2018-09-24T02:27:16.772Z,8.23
2018-09-24T02:28:17.033Z,8.19
2018-09-24T02:29:16.299Z,8.27
2018-09-24T02:30:16.594Z,8.19
2018-09-24T02:31:16.595Z,8.24
2018-09-24T02:32:16.865Z,8.21
2018-09-24T02:33:17.121Z,8.23
2018-09-24T02:34:16.387Z,8.20
2018-09-24T02:35:16.657Z,8.23
2018-09-24T02:36:16.928Z,8.21
2018-09-24T02:37:17.191Z,8.24
2018-09-24T02:38:16.477Z,8.23
2018-09-24T02:39:16.736Z,8.24
2018-09-24T02:40:17.026Z,8.24
2018-09-24T02:41:17.058Z,8.19
2018-09-24T02:42:16.329Z,8.19
2018-09-24T02:43:16.622Z,8.17
2018-09-24T02:44:16.897Z,8.21
2018-09-24T02:45:17.170Z,8.20
2018-09-24T02:46:16.441Z,8.26
2018-09-24T02:47:16.692Z,8.24
2018-09-24T02:48:16.981Z,8.23
2018-09-24T02:49:16.248Z,8.17
2018-09-24T02:50:16.553Z,8.19
2018-09-24T02:51:16.570Z,8.19
2018-09-24T02:52:16.848Z,8.16
2018-09-24T02:53:17.095Z,8.16
2018-09-24T02:54:16.364Z,8.16
2018-09-24T02:55:16.657Z,8.19
2018-09-24T02:56:16.922Z,8.17
2018-09-24T02:57:17.199Z,8.19
2018-09-24T02:58:16.472Z,8.14
2018-09-24T02:59:16.751Z,8.19
2018-09-24T03:00:17.057Z,8.19
2018-09-24T03:01:17.158Z,8.24
2018-09-24T03:02:16.540Z,8.23
2018-09-24T03:03:16.796Z,8.14
2018-09-24T03:04:17.068Z,8.19
2018-09-24T03:05:16.342Z,8.16
2018-09-24T03:06:16.689Z,8.16
2018-09-24T03:07:16.978Z,8.20
2018-09-24T03:08:16.249Z,8.13
2018-09-24T03:09:16.524Z,8.13
2018-09-24T03:10:16.818Z,8.10
2018-09-24T03:11:16.852Z,8.08
2018-09-24T03:12:17.122Z,8.14
2018-09-24T03:13:16.389Z,8.09
2018-09-24T03:14:16.657Z,8.03
2018-09-24T03:15:16.926Z,8.06
2018-09-24T03:16:17.196Z,8.03
2018-09-24T03:17:16.469Z,8.02
2018-09-24T03:18:16.751Z,8.02
2018-09-24T03:19:17.033Z,8.05
2018-09-24T03:20:16.326Z,8.02
2018-09-24T03:21:16.369Z,7.98
2018-09-24T03:22:16.681Z,8.03
2018-09-24T03:23:16.950Z,7.99
2018-09-24T03:24:16.224Z,8.00
2018-09-24T03:25:16.509Z,7.93
2018-09-24T03:26:16.828Z,7.98
2018-09-24T03:27:17.184Z,7.89
2018-09-24T03:28:16.455Z,7.85
2018-09-24T03:29:16.730Z,7.88
2018-09-24T03:30:17.016Z,7.82
2018-09-24T03:31:17.050Z,7.88
2018-09-24T03:32:16.637Z,7.80
2018-09-24T03:33:16.913Z,7.80
2018-09-24T03:34:17.181Z,7.74
2018-09-24T03:35:16.669Z,7.66
2018-09-24T03:36:17.197Z,7.62
2018-09-24T03:37:16.475Z,7.65
2018-09-24T03:38:16.744Z,7.69
2018-09-24T03:39:17.012Z,7.75
2018-09-24T03:40:16.292Z,7.78
2018-09-24T03:41:16.341Z,7.69
2018-09-24T03:42:16.655Z,7.72
2018-09-24T03:43:16.933Z,7.75
2018-09-24T03:44:17.203Z,7.77
2018-09-24T03:45:16.477Z,7.72
2018-09-24T03:46:16.745Z,7.68
2018-09-24T03:47:17.015Z,7.68
2018-09-24T03:48:16.286Z,7.68
2018-09-24T03:49:16.548Z,7.64
2018-09-24T03:50:16.832Z,7.64
2018-09-24T03:51:16.870Z,7.69
2018-09-24T03:52:17.256Z,7.65
2018-09-24T03:53:16.517Z,7.62
2018-09-24T03:54:16.786Z,7.74
2018-09-24T03:55:17.059Z,7.66
2018-09-24T03:56:16.327Z,7.68
2018-09-24T03:57:16.604Z,7.55
2018-09-24T03:58:16.866Z,7.59
2018-09-24T03:59:17.135Z,7.57
2018-09-24T04:00:16.420Z,7.59
2018-09-24T04:01:16.462Z,7.57
2018-09-24T04:02:16.739Z,7.54
2018-09-24T04:03:17.002Z,7.54
2018-09-24T04:04:16.271Z,7.64
2018-09-24T04:05:16.576Z,7.57
2018-09-24T04:06:16.846Z,7.58
2018-09-24T04:07:17.409Z,7.55
2018-09-24T04:08:16.674Z,7.48
2018-09-24T04:09:16.973Z,7.47
2018-09-24T04:10:16.358Z,7.44
2018-09-24T04:11:16.365Z,7.48
2018-09-24T04:12:16.653Z,7.54
2018-09-24T04:13:17.301Z,7.62
2018-09-24T04:14:16.569Z,7.71
2018-09-24T04:15:16.843Z,7.58
2018-09-24T04:16:17.112Z,7.64
2018-09-24T04:17:16.383Z,7.61
2018-09-24T04:18:16.668Z,7.59
2018-09-24T04:19:16.940Z,7.54
2018-09-24T04:20:16.218Z,7.58
2018-09-24T04:21:16.267Z,7.55
2018-09-24T04:22:16.537Z,7.55
2018-09-24T04:23:16.823Z,7.54
2018-09-24T04:24:17.097Z,7.53
2018-09-24T04:25:16.381Z,7.45
2018-09-24T04:26:16.691Z,7.47
2018-09-24T04:27:17.167Z,7.43
2018-09-24T04:28:16.461Z,7.50
2018-09-24T04:29:16.739Z,7.48
2018-09-24T04:30:17.019Z,7.45
2018-09-24T04:31:17.065Z,7.40
2018-09-24T04:32:16.343Z,7.41
2018-09-24T04:33:16.617Z,7.43
2018-09-24T04:34:16.885Z,7.37
2018-09-24T04:35:17.164Z,7.43
2018-09-24T04:36:16.427Z,7.45
2018-09-24T04:37:16.693Z,7.40
2018-09-24T04:38:16.957Z,7.37
2018-09-24T04:39:16.238Z,7.45
2018-09-24T04:40:16.522Z,7.35
2018-09-24T04:41:16.562Z,7.35
2018-09-24T04:42:16.845Z,7.34
2018-09-24T04:43:17.121Z,7.40
2018-09-24T04:44:16.409Z,7.45
2018-09-24T04:45:16.676Z,7.38
2018-09-24T04:46:16.947Z,7.50
2018-09-24T04:47:16.229Z,7.41
2018-09-24T04:48:16.501Z,7.51
2018-09-24T04:49:16.830Z,7.41
2018-09-24T04:50:16.337Z,7.44
2018-09-24T04:51:16.402Z,7.43
2018-09-24T04:52:16.778Z,7.43
2018-09-24T04:53:17.166Z,7.45
2018-09-24T04:54:16.440Z,7.45
2018-09-24T04:55:16.726Z,7.43
2018-09-24T04:56:17.004Z,7.35
2018-09-24T04:57:16.277Z,7.33
2018-09-24T04:58:16.560Z,7.37
2018-09-24T04:59:16.848Z,7.35
2018-09-24T05:00:17.131Z,7.29
2018-09-24T05:01:17.206Z,7.27
2018-09-24T05:02:16.488Z,7.24
2018-09-24T05:03:16.757Z,7.33
2018-09-24T05:04:17.025Z,7.34
2018-09-24T05:05:16.307Z,7.30
2018-09-24T05:06:16.577Z,7.24
2018-09-24T05:07:16.850Z,7.35
2018-09-24T05:08:17.122Z,7.33
2018-09-24T05:09:16.395Z,7.31
2018-09-24T05:10:16.727Z,7.33
2018-09-24T05:11:16.720Z,7.43
2018-09-24T05:12:16.983Z,7.30
2018-09-24T05:13:16.246Z,7.27
2018-09-24T05:14:16.516Z,7.23
2018-09-24T05:15:16.786Z,7.19
2018-09-24T05:16:17.085Z,7.24
2018-09-24T05:17:16.596Z,7.29
2018-09-24T05:18:16.861Z,7.22
2018-09-24T05:19:17.131Z,7.23
2018-09-24T05:20:16.556Z,7.33
2018-09-24T05:21:16.461Z,7.26
2018-09-24T05:22:16.743Z,7.27
2018-09-24T05:23:17.011Z,7.38
2018-09-24T05:24:16.283Z,7.26
2018-09-24T05:25:16.568Z,7.35
2018-09-24T05:26:16.842Z,7.35
2018-09-24T05:27:17.430Z,7.27
2018-09-24T05:28:16.807Z,7.24
2018-09-24T05:29:17.081Z,7.22
2018-09-24T05:30:16.383Z,7.26
2018-09-24T05:31:16.436Z,7.22
2018-09-24T05:32:16.712Z,7.33
2018-09-24T05:33:17.098Z,7.31
2018-09-24T05:34:16.445Z,7.31
2018-09-24T05:35:16.801Z,7.23
2018-09-24T05:36:17.108Z,7.23
2018-09-24T05:37:16.376Z,7.27
2018-09-24T05:38:16.655Z,7.27
2018-09-24T05:39:16.937Z,7.30
2018-09-24T05:40:16.227Z,7.33
2018-09-24T05:41:16.288Z,7.34
2018-09-24T05:42:16.662Z,7.38
2018-09-24T05:43:16.947Z,7.41
2018-09-24T05:44:16.216Z,7.37
2018-09-24T05:45:16.489Z,7.40
2018-09-24T05:46:16.756Z,7.31
2018-09-24T05:47:17.029Z,7.31
2018-09-24T05:48:16.303Z,7.34
2018-09-24T05:49:16.578Z,7.34
2018-09-24T05:50:16.854Z,7.38
2018-09-24T05:51:16.898Z,7.30
2018-09-24T05:52:17.190Z,7.27
2018-09-24T05:53:16.463Z,7.23
2018-09-24T05:54:16.859Z,7.27
2018-09-24T05:55:16.227Z,7.33
2018-09-24T05:56:16.498Z,7.33
2018-09-24T05:57:16.771Z,7.40
2018-09-24T05:58:17.049Z,7.37
2018-09-24T05:59:16.319Z,7.43
2018-09-24T06:00:16.614Z,7.44
2018-09-24T06:01:16.638Z,7.38
2018-09-24T06:02:16.910Z,7.41
2018-09-24T06:03:17.202Z,7.47
2018-09-24T06:04:16.459Z,7.53
2018-09-24T06:05:16.737Z,7.51
2018-09-24T06:06:17.013Z,7.54
2018-09-24T06:07:16.286Z,7.53
2018-09-24T06:08:16.549Z,7.50
2018-09-24T06:09:16.835Z,7.55
2018-09-24T06:10:17.112Z,7.58
2018-09-24T06:11:17.153Z,7.59
2018-09-24T06:12:16.417Z,7.69
2018-09-24T06:13:16.687Z,7.69
2018-09-24T06:14:16.969Z,7.66
2018-09-24T06:15:16.243Z,7.64
2018-09-24T06:16:16.521Z,7.65
2018-09-24T06:17:16.789Z,7.71
2018-09-24T06:18:17.063Z,7.69
2018-09-24T06:19:16.346Z,7.71
2018-09-24T06:20:16.623Z,7.81
2018-09-24T06:21:16.676Z,7.77
2018-09-24T06:22:16.938Z,7.80
2018-09-24T06:23:16.219Z,7.86
2018-09-24T06:24:16.496Z,7.82
2018-09-24T06:25:16.766Z,7.88
2018-09-24T06:26:17.039Z,7.84
2018-09-24T06:27:16.319Z,7.84
2018-09-24T06:28:16.603Z,7.86
2018-09-24T06:29:16.899Z,7.89
2018-09-24T06:30:17.200Z,7.96
2018-09-24T06:31:16.233Z,7.95
2018-09-24T06:32:16.523Z,7.96
2018-09-24T06:33:16.793Z,7.92
2018-09-24T06:34:17.090Z,7.96
2018-09-24T06:35:16.495Z,8.08
2018-09-24T06:36:16.765Z,8.08
2018-09-24T06:37:17.039Z,8.00
2018-09-24T06:38:16.309Z,8.00
2018-09-24T06:39:16.583Z,8.10
2018-09-24T06:40:16.980Z,8.13
2018-09-24T06:41:16.995Z,8.14
2018-09-24T06:42:16.445Z,8.23
2018-09-24T06:43:16.706Z,8.26
2018-09-24T06:44:16.977Z,8.23
2018-09-24T06:45:16.249Z,8.26
2018-09-24T06:46:16.521Z,8.36
2018-09-24T06:47:16.797Z,8.30
2018-09-24T06:48:17.069Z,8.30
2018-09-24T06:49:16.334Z,8.30
2018-09-24T06:50:16.607Z,8.30
2018-09-24T06:51:16.645Z,8.33
2018-09-24T06:52:16.911Z,8.40
2018-09-24T06:53:17.173Z,8.39
2018-09-24T06:54:16.437Z,8.39
2018-09-24T06:55:16.715Z,8.29
2018-09-24T06:56:17.000Z,8.34
2018-09-24T06:57:16.271Z,8.33
2018-09-24T06:58:16.542Z,8.40
2018-09-24T06:59:16.802Z,8.37
2018-09-24T07:00:17.120Z,8.39
2018-09-24T07:01:17.100Z,8.41
2018-09-24T07:02:16.375Z,8.40
2018-09-24T07:03:16.641Z,8.40
2018-09-24T07:04:16.916Z,8.45
2018-09-24T07:05:17.210Z,8.43
2018-09-24T07:06:16.538Z,8.44
2018-09-24T07:07:16.808Z,8.61
2018-09-24T07:08:17.074Z,8.54
2018-09-24T07:09:16.360Z,8.52
2018-09-24T07:10:16.637Z,8.64
2018-09-24T07:11:16.755Z,8.62
2018-09-24T07:12:17.181Z,8.65
2018-09-24T07:13:16.450Z,8.71
2018-09-24T07:14:16.718Z,8.54
2018-09-24T07:15:16.992Z,8.61
2018-09-24T07:16:16.255Z,8.61
2018-09-24T07:17:16.528Z,8.68
2018-09-24T07:18:16.808Z,8.62
2018-09-24T07:19:17.088Z,8.61
2018-09-24T07:20:16.370Z,8.62
2018-09-24T07:21:16.447Z,8.65
2018-09-24T07:22:16.772Z,8.75
2018-09-24T07:23:17.035Z,8.69
2018-09-24T07:24:16.297Z,8.64
2018-09-24T07:25:16.577Z,8.82
2018-09-24T07:26:16.845Z,8.82
2018-09-24T07:27:17.105Z,8.88
2018-09-24T07:28:16.420Z,8.85
2018-09-24T07:29:16.833Z,8.84
2018-09-24T07:30:17.128Z,8.79
2018-09-24T07:31:17.168Z,8.84
2018-09-24T07:32:16.445Z,8.82
2018-09-24T07:33:16.827Z,8.84
2018-09-24T07:34:17.127Z,8.84
2018-09-24T07:35:16.400Z,8.99
2018-09-24T07:36:16.671Z,9.02
2018-09-24T07:37:16.941Z,8.86
2018-09-24T07:38:16.220Z,9.02
2018-09-24T07:39:16.487Z,9.12
2018-09-24T07:40:16.774Z,9.20
2018-09-24T07:41:16.814Z,9.22
2018-09-24T07:42:17.083Z,9.20
2018-09-24T07:43:16.487Z,9.34
2018-09-24T07:44:17.000Z,9.36
2018-09-24T07:45:16.273Z,9.36
2018-09-24T07:46:16.542Z,9.43
2018-09-24T07:47:16.803Z,9.33
2018-09-24T07:48:17.074Z,9.31
2018-09-24T07:49:16.341Z,9.37
2018-09-24T07:50:16.645Z,9.23
2018-09-24T07:51:16.659Z,9.20
2018-09-24T07:52:16.933Z,9.34
2018-09-24T07:53:17.207Z,9.44
2018-09-24T07:54:16.485Z,9.59
2018-09-24T07:55:16.782Z,9.48
2018-09-24T07:56:17.116Z,9.72
2018-09-24T07:57:16.382Z,9.78
2018-09-24T07:58:16.639Z,9.48
2018-09-24T07:59:16.903Z,9.43
2018-09-24T08:00:17.182Z,9.34
2018-09-24T08:01:16.222Z,9.36
2018-09-24T08:02:16.490Z,9.48
2018-09-24T08:03:16.767Z,9.38
2018-09-24T08:04:17.039Z,9.38
2018-09-24T08:05:16.305Z,9.43
2018-09-24T08:06:16.591Z,9.43
2018-09-24T08:07:16.865Z,9.57
2018-09-24T08:08:17.170Z,9.59
2018-09-24T08:09:16.448Z,9.41
2018-09-24T08:10:16.714Z,9.48
2018-09-24T08:11:16.755Z,9.40
2018-09-24T08:12:17.022Z,9.57
2018-09-24T08:13:16.407Z,9.53
2018-09-24T08:14:16.733Z,9.54
2018-09-24T08:15:17.011Z,9.61
2018-09-24T08:16:16.280Z,9.84
2018-09-24T08:17:16.542Z,9.82
2018-09-24T08:18:16.870Z,9.75
2018-09-24T08:19:16.257Z,9.76
2018-09-24T08:20:16.536Z,9.72
2018-09-24T08:21:16.581Z,9.53
2018-09-24T08:22:16.850Z,9.59
2018-09-24T08:23:17.125Z,9.66
2018-09-24T08:24:16.397Z,9.66
2018-09-24T08:25:16.674Z,9.71
2018-09-24T08:26:16.951Z,9.69
2018-09-24T08:27:16.229Z,9.76
2018-09-24T08:28:16.503Z,9.59
2018-09-24T08:29:16.778Z,9.72
2018-09-24T08:30:17.079Z,9.66
2018-09-24T08:31:17.123Z,9.82
2018-09-24T08:32:16.396Z,9.93
2018-09-24T08:33:16.674Z,10.12
2018-09-24T08:34:16.950Z,10.12
2018-09-24T08:35:16.218Z,10.12
2018-09-24T08:36:16.522Z,10.02
2018-09-24T08:37:16.872Z,10.01
2018-09-24T08:38:17.189Z,10.01
2018-09-24T08:39:16.756Z,10.02
2018-09-24T08:40:17.026Z,10.05
2018-09-24T08:41:17.067Z,10.12
2018-09-24T08:42:16.335Z,10.21
2018-09-24T08:43:16.609Z,10.27
2018-09-24T08:44:16.998Z,9.99
2018-09-24T08:45:16.433Z,10.09
2018-09-24T08:46:16.709Z,10.16
2018-09-24T08:47:16.978Z,10.26
2018-09-24T08:48:16.238Z,10.06
2018-09-24T08:49:16.511Z,9.95
2018-09-24T08:50:16.806Z,10.10
2018-09-24T08:51:16.844Z,10.12
2018-09-24T08:52:17.126Z,10.19
2018-09-24T08:53:16.425Z,10.20
2018-09-24T08:54:16.861Z,10.29
2018-09-24T08:55:17.149Z,10.33
2018-09-24T08:56:16.522Z,10.19
2018-09-24T08:57:16.898Z,10.24
2018-09-24T08:58:16.341Z,10.26
2018-09-24T08:59:16.611Z,10.34
2018-09-24T09:00:16.885Z,10.44
2018-09-24T09:01:16.957Z,10.26
2018-09-24T09:02:16.218Z,10.33
2018-09-24T09:03:16.490Z,10.33
2018-09-24T09:04:16.756Z,10.41
2018-09-24T09:05:17.015Z,10.58
2018-09-24T09:06:16.285Z,10.24
2018-09-24T09:07:16.558Z,10.58
2018-09-24T09:08:16.844Z,10.65
2018-09-24T09:09:16.225Z,10.67
2018-09-24T09:10:16.518Z,10.64
2018-09-24T09:11:16.558Z,10.74
2018-09-24T09:12:16.833Z,10.94
2018-09-24T09:13:17.105Z,10.71
2018-09-24T09:14:16.377Z,10.89
2018-09-24T09:15:16.653Z,10.87
2018-09-24T09:16:16.932Z,10.75
2018-09-24T09:17:16.336Z,10.58
2018-09-24T09:18:16.609Z,10.44
2018-09-24T09:19:16.895Z,10.54
2018-09-24T09:20:17.172Z,10.61
2018-09-24T09:21:17.197Z,10.58
2018-09-24T09:22:16.461Z,10.52
2018-09-24T09:23:16.745Z,10.52
2018-09-24T09:24:17.015Z,10.70
2018-09-24T09:25:16.288Z,10.74
2018-09-24T09:26:16.566Z,10.87
2018-09-24T09:27:16.841Z,10.71
2018-09-24T09:28:17.265Z,11.00
2018-09-24T09:29:16.594Z,11.10
2018-09-24T09:30:16.928Z,11.27
2018-09-24T09:31:16.974Z,11.03
2018-09-24T09:32:16.245Z,10.81
2018-09-24T09:33:16.507Z,10.89
2018-09-24T09:34:16.786Z,10.94
2018-09-24T09:35:17.081Z,10.89
2018-09-24T09:36:16.453Z,10.87
2018-09-24T09:37:16.719Z,10.98
2018-09-24T09:38:16.997Z,11.03
2018-09-24T09:39:16.280Z,11.00
2018-09-24T09:40:16.557Z,10.89
2018-09-24T09:41:16.623Z,10.77
2018-09-24T09:42:16.891Z,10.81
2018-09-24T09:43:17.170Z,10.81
2018-09-24T09:44:16.445Z,10.79
2018-09-24T09:45:16.719Z,10.71
2018-09-24T09:46:16.989Z,10.85
2018-09-24T09:47:16.259Z,10.87
2018-09-24T09:48:16.544Z,10.78
2018-09-24T09:49:16.812Z,10.68
2018-09-24T09:50:17.096Z,10.68
2018-09-24T09:51:17.147Z,10.65
2018-09-24T09:52:16.422Z,10.70
2018-09-24T09:53:16.680Z,10.82
2018-09-24T09:54:16.951Z,10.85
2018-09-24T09:55:16.223Z,10.92
2018-09-24T09:56:16.501Z,10.95
2018-09-24T09:57:16.768Z,11.00
2018-09-24T09:58:17.048Z,10.94
2018-09-24T09:59:16.442Z,10.84
2018-09-24T10:00:16.962Z,10.84
2018-09-24T10:01:16.997Z,10.79
2018-09-24T10:02:16.272Z,10.81
2018-09-24T10:03:16.546Z,10.87
2018-09-24T10:04:16.816Z,10.94
2018-09-24T10:05:17.095Z,10.94
2018-09-24T10:06:16.367Z,10.95
2018-09-24T10:07:16.631Z,10.98
2018-09-24T10:08:16.900Z,11.06
2018-09-24T10:09:17.176Z,11.09
2018-09-24T10:10:16.449Z,10.99
2018-09-24T10:11:16.569Z,11.30
2018-09-24T10:12:16.977Z,11.30
2018-09-24T10:13:16.243Z,11.36
2018-09-24T10:14:16.513Z,11.26
2018-09-24T10:15:16.790Z,11.26
2018-09-24T10:16:17.056Z,11.33
2018-09-24T10:17:16.323Z,11.30
2018-09-24T10:18:16.594Z,11.53
2018-09-24T10:19:16.871Z,11.55
2018-09-24T10:20:17.142Z,11.50
2018-09-24T10:21:17.196Z,11.39
2018-09-24T10:22:16.479Z,11.50
2018-09-24T10:23:16.749Z,11.60
2018-09-24T10:24:17.013Z,11.57
2018-09-24T10:25:16.292Z,11.54
2018-09-24T10:26:16.570Z,11.49
2018-09-24T10:27:16.843Z,11.96
2018-09-24T10:28:17.110Z,11.72
2018-09-24T10:29:16.381Z,11.93
2018-09-24T10:30:16.658Z,11.75
2018-09-24T10:31:16.709Z,11.86
2018-09-24T10:32:16.977Z,11.70
2018-09-24T10:33:16.237Z,11.51
2018-09-24T10:34:16.510Z,11.34
2018-09-24T10:35:16.771Z,11.40
2018-09-24T10:36:17.041Z,11.53
2018-09-24T10:37:16.326Z,11.37
2018-09-24T10:38:16.602Z,11.31
2018-09-24T10:39:16.872Z,11.33
2018-09-24T10:40:17.145Z,11.42
2018-09-24T10:41:16.224Z,11.53
2018-09-24T10:42:16.501Z,11.63
2018-09-24T10:43:16.774Z,11.57
2018-09-24T10:44:17.052Z,11.53
2018-09-24T10:45:16.340Z,11.57
2018-09-24T10:46:16.621Z,11.50
2018-09-24T10:47:16.884Z,11.43
2018-09-24T10:48:17.148Z,11.44
2018-09-24T10:49:16.414Z,11.53
2018-09-24T10:50:16.688Z,11.61
2018-09-24T10:51:16.727Z,11.60
2018-09-24T10:52:16.998Z,11.63
2018-09-24T10:53:16.270Z,11.71
2018-09-24T10:54:16.527Z,11.75
2018-09-24T10:55:16.800Z,11.77
2018-09-24T10:56:17.071Z,11.72
2018-09-24T10:57:16.342Z,11.72
2018-09-24T10:58:16.607Z,11.75
2018-09-24T10:59:16.906Z,11.60
2018-09-24T11:00:17.189Z,11.67
2018-09-24T11:01:16.244Z,11.65
2018-09-24T11:02:16.657Z,11.70
2018-09-24T11:03:16.929Z,11.72
2018-09-24T11:04:17.208Z,11.67
2018-09-24T11:05:16.501Z,11.78
2018-09-24T11:06:16.780Z,11.82
2018-09-24T11:07:17.045Z,11.58
2018-09-24T11:08:16.320Z,11.60
2018-09-24T11:09:16.594Z,11.75
2018-09-24T11:10:16.937Z,11.85
2018-09-24T11:11:16.918Z,12.08
2018-09-24T11:12:17.189Z,12.19
2018-09-24T11:13:16.461Z,12.30
2018-09-24T11:14:16.727Z,11.82
2018-09-24T11:15:16.995Z,11.74
2018-09-24T11:16:16.439Z,11.72
2018-09-24T11:17:17.351Z,12.02
2018-09-24T11:18:17.120Z,11.96
2018-09-24T11:19:16.393Z,12.12
2018-09-24T11:20:16.686Z,11.92
2018-09-24T11:21:16.711Z,12.02
2018-09-24T11:22:17.023Z,12.05
2018-09-24T11:23:16.457Z,11.96
2018-09-24T11:24:16.727Z,11.95
2018-09-24T11:25:17.007Z,11.86
2018-09-24T11:27:16.259Z,12.03
2018-09-24T11:28:16.524Z,12.01
2018-09-24T11:29:16.797Z,12.02
2018-09-24T11:30:17.162Z,11.96
2018-09-24T11:31:16.207Z,11.96
2018-09-24T11:32:16.489Z,12.09
2018-09-24T11:33:16.758Z,12.33
2018-09-24T11:34:17.022Z,12.30
2018-09-24T11:35:16.296Z,12.29
2018-09-24T11:36:16.574Z,12.28
2018-09-24T11:37:16.837Z,12.41
2018-09-24T11:38:17.112Z,12.41
2018-09-24T11:39:16.389Z,12.63
2018-09-24T11:40:16.657Z,12.74
2018-09-24T11:41:16.714Z,12.56
2018-09-24T11:42:16.982Z,12.81
2018-09-24T11:43:16.253Z,12.66
2018-09-24T11:44:16.529Z,12.67
2018-09-24T11:45:16.804Z,12.74
2018-09-24T11:46:17.073Z,12.47
2018-09-24T11:47:16.336Z,12.43
2018-09-24T11:48:16.609Z,12.58
2018-09-24T11:49:16.885Z,12.77
2018-09-24T11:50:17.169Z,12.84
2018-09-24T11:51:16.217Z,12.82
2018-09-24T11:52:16.486Z,13.22
2018-09-24T11:53:16.757Z,13.32
2018-09-24T11:54:17.023Z,13.32
2018-09-24T11:55:16.295Z,13.30
2018-09-24T11:56:16.593Z,13.43
2018-09-24T11:57:17.030Z,13.60
2018-09-24T11:58:16.307Z,13.39
2018-09-24T11:59:16.590Z,12.81
2018-09-24T12:00:16.878Z,13.06
2018-09-24T12:01:16.900Z,13.06
2018-09-24T12:02:17.217Z,12.92
2018-09-24T12:03:16.540Z,12.82
2018-09-24T12:04:16.821Z,12.96
2018-09-24T12:05:17.098Z,12.95
2018-09-24T12:06:16.365Z,12.94
2018-09-24T12:07:16.642Z,13.08
2018-09-24T12:08:16.928Z,13.04
2018-09-24T12:09:17.216Z,12.78
2018-09-24T12:10:16.562Z,12.75
2018-09-24T12:11:16.540Z,12.68
2018-09-24T12:12:16.805Z,12.82
2018-09-24T12:13:17.101Z,12.84
2018-09-24T12:14:16.366Z,12.68
2018-09-24T12:15:16.637Z,12.64
2018-09-24T12:16:16.897Z,12.53
2018-09-24T12:17:17.178Z,12.50
2018-09-24T12:18:16.450Z,12.44
2018-09-24T12:19:16.728Z,12.41
2018-09-24T12:20:17.005Z,12.56
2018-09-24T12:21:17.043Z,12.58
2018-09-24T12:22:16.310Z,12.60
2018-09-24T12:23:16.581Z,12.67
2018-09-24T12:24:16.847Z,12.75
2018-09-24T12:25:17.133Z,12.72
2018-09-24T12:26:16.415Z,12.75
2018-09-24T12:27:16.688Z,12.67
2018-09-24T12:28:16.952Z,12.57
2018-09-24T12:29:16.224Z,12.58
2018-09-24T12:30:16.508Z,12.67
2018-09-24T12:31:16.543Z,12.87
2018-09-24T12:32:16.812Z,12.98
2018-09-24T12:33:17.087Z,13.06
2018-09-24T12:34:16.352Z,13.02
2018-09-24T12:35:16.620Z,13.22
2018-09-24T12:36:16.885Z,13.27
2018-09-24T12:37:17.154Z,13.42
2018-09-24T12:38:16.425Z,13.30
2018-09-24T12:39:16.742Z,13.29
2018-09-24T12:40:17.090Z,13.15
2018-09-24T12:41:17.130Z,13.39
2018-09-24T12:42:16.396Z,13.40
2018-09-24T12:43:16.669Z,13.60
2018-09-24T12:44:16.935Z,13.40
2018-09-24T12:45:17.217Z,13.37
2018-09-24T12:46:16.502Z,13.49
2018-09-24T12:47:16.765Z,13.58
2018-09-24T12:48:17.076Z,13.39
2018-09-24T12:49:16.446Z,13.06
2018-09-24T12:50:16.739Z,13.04
2018-09-24T12:51:16.786Z,13.16
2018-09-24T12:52:17.071Z,13.34
2018-09-24T12:53:16.351Z,13.29
2018-09-24T12:54:16.628Z,13.44
2018-09-24T12:55:16.889Z,13.60
2018-09-24T12:56:17.159Z,13.40
2018-09-24T12:57:16.430Z,13.25
2018-09-24T12:58:16.699Z,13.42
2018-09-24T12:59:16.977Z,13.50
2018-09-24T13:00:16.282Z,13.65
2018-09-24T13:01:16.342Z,13.77
2018-09-24T13:02:16.632Z,14.00
2018-09-24T13:03:16.905Z,14.01
2018-09-24T13:04:17.183Z,13.98
2018-09-24T13:05:16.458Z,13.82
2018-09-24T13:06:16.735Z,13.64
2018-09-24T13:07:17.004Z,13.61
2018-09-24T13:08:16.282Z,12.98
2018-09-24T13:09:16.582Z,13.08
2018-09-24T13:10:16.860Z,13.08